sensor_id;sensor_type;location;lat;lon;timestamp;P1;durP1;ratioP1;P2;durP2;ratioP2
25331;SDS011;13284;52.748;13.452;2022-07-22T00:02:12;8.10;;;7.30;;
25331;SDS011;13284;52.748;13.452;2022-07-22T00:04:38;9.23;;;8.30;;
25331;SDS011;13284;52.748;13.452;2022-07-22T00:07:03;8.77;;;7.97;;
25331;SDS011;13284;52.748;13.452;2022-07-22T00:09:29;10.00;;;8.87;;
25331;SDS011;13284;52.748;13.452;2022-07-22T00:11:55;13.03;;;11.37;;
25331;SDS011;13284;52.748;13.452;2022-07-22T00:14:20;11.47;;;10.37;;
25331;SDS011;13284;52.748;13.452;2022-07-22T00:16:46;12.47;;;10.20;;
25331;SDS011;13284;52.748;13.452;2022-07-22T00:19:11;11.73;;;9.40;;
25331;SDS011;13284;52.748;13.452;2022-07-22T00:21:37;9.23;;;8.33;;
25331;SDS011;13284;52.748;13.452;2022-07-22T00:24:02;9.37;;;8.47;;
25331;SDS011;13284;52.748;13.452;2022-07-22T00:26:28;9.17;;;8.30;;
25331;SDS011;13284;52.748;13.452;2022-07-22T00:28:54;11.03;;;9.50;;
25331;SDS011;13284;52.748;13.452;2022-07-22T00:31:19;9.30;;;8.40;;
25331;SDS011;13284;52.748;13.452;2022-07-22T00:33:45;9.37;;;8.47;;
25331;SDS011;13284;52.748;13.452;2022-07-22T00:36:10;9.60;;;8.60;;
25331;SDS011;13284;52.748;13.452;2022-07-22T00:38:36;9.70;;;8.70;;
25331;SDS011;13284;52.748;13.452;2022-07-22T00:41:02;9.80;;;8.90;;
25331;SDS011;13284;52.748;13.452;2022-07-22T00:43:27;10.03;;;9.13;;
25331;SDS011;13284;52.748;13.452;2022-07-22T00:46:12;8.90;;;8.10;;
25331;SDS011;13284;52.748;13.452;2022-07-22T00:48:38;9.30;;;8.40;;
25331;SDS011;13284;52.748;13.452;2022-07-22T00:51:03;9.07;;;8.17;;
25331;SDS011;13284;52.748;13.452;2022-07-22T00:53:29;10.07;;;9.10;;
25331;SDS011;13284;52.748;13.452;2022-07-22T00:55:54;9.80;;;8.80;;
25331;SDS011;13284;52.748;13.452;2022-07-22T00:58:20;9.37;;;8.47;;
25331;SDS011;13284;52.748;13.452;2022-07-22T01:00:46;10.00;;;9.00;;
25331;SDS011;13284;52.748;13.452;2022-07-22T01:03:12;9.60;;;8.73;;
25331;SDS011;13284;52.748;13.452;2022-07-22T01:05:38;10.37;;;9.37;;
25331;SDS011;13284;52.748;13.452;2022-07-22T01:08:07;10.00;;;9.00;;
25331;SDS011;13284;52.748;13.452;2022-07-22T01:10:32;10.20;;;9.20;;
25331;SDS011;13284;52.748;13.452;2022-07-22T01:12:58;10.17;;;9.17;;
25331;SDS011;13284;52.748;13.452;2022-07-22T01:15:23;11.20;;;9.80;;
25331;SDS011;13284;52.748;13.452;2022-07-22T01:17:49;10.37;;;9.43;;
25331;SDS011;13284;52.748;13.452;2022-07-22T01:20:14;10.93;;;9.50;;
25331;SDS011;13284;52.748;13.452;2022-07-22T01:22:40;9.80;;;8.77;;
25331;SDS011;13284;52.748;13.452;2022-07-22T01:25:05;9.97;;;8.87;;
25331;SDS011;13284;52.748;13.452;2022-07-22T01:27:31;10.23;;;9.27;;
25331;SDS011;13284;52.748;13.452;2022-07-22T01:29:57;9.50;;;8.60;;
25331;SDS011;13284;52.748;13.452;2022-07-22T01:32:22;10.13;;;9.23;;
25331;SDS011;13284;52.748;13.452;2022-07-22T01:34:48;10.40;;;8.97;;
25331;SDS011;13284;52.748;13.452;2022-07-22T01:37:14;9.97;;;9.07;;
25331;SDS011;13284;52.748;13.452;2022-07-22T01:39:39;10.07;;;9.07;;
25331;SDS011;13284;52.748;13.452;2022-07-22T01:42:05;9.93;;;8.57;;
25331;SDS011;13284;52.748;13.452;2022-07-22T01:44:31;8.23;;;7.43;;
25331;SDS011;13284;52.748;13.452;2022-07-22T01:46:57;8.23;;;7.43;;
25331;SDS011;13284;52.748;13.452;2022-07-22T01:49:23;7.47;;;6.43;;
25331;SDS011;13284;52.748;13.452;2022-07-22T01:51:49;7.43;;;6.73;;
25331;SDS011;13284;52.748;13.452;2022-07-22T01:54:15;8.00;;;7.20;;
25331;SDS011;13284;52.748;13.452;2022-07-22T01:56:40;6.37;;;5.77;;
25331;SDS011;13284;52.748;13.452;2022-07-22T01:59:06;7.10;;;6.10;;
25331;SDS011;13284;52.748;13.452;2022-07-22T02:01:32;6.20;;;5.60;;
25331;SDS011;13284;52.748;13.452;2022-07-22T02:03:58;6.30;;;5.70;;
25331;SDS011;13284;52.748;13.452;2022-07-22T02:06:23;6.20;;;5.70;;
25331;SDS011;13284;52.748;13.452;2022-07-22T02:08:49;6.20;;;5.30;;
25331;SDS011;13284;52.748;13.452;2022-07-22T02:11:14;6.07;;;5.53;;
25331;SDS011;13284;52.748;13.452;2022-07-22T02:13:42;5.73;;;5.33;;
25331;SDS011;13284;52.748;13.452;2022-07-22T02:16:08;6.40;;;5.80;;
25331;SDS011;13284;52.748;13.452;2022-07-22T02:18:33;6.70;;;6.00;;
25331;SDS011;13284;52.748;13.452;2022-07-22T02:20:59;5.73;;;5.20;;
25331;SDS011;13284;52.748;13.452;2022-07-22T02:23:25;5.20;;;4.80;;
25331;SDS011;13284;52.748;13.452;2022-07-22T02:25:50;5.70;;;5.10;;
25331;SDS011;13284;52.748;13.452;2022-07-22T02:28:16;5.63;;;5.07;;
25331;SDS011;13284;52.748;13.452;2022-07-22T02:30:41;6.17;;;5.57;;
25331;SDS011;13284;52.748;13.452;2022-07-22T02:33:07;5.60;;;5.10;;
25331;SDS011;13284;52.748;13.452;2022-07-22T02:35:32;6.53;;;5.50;;
25331;SDS011;13284;52.748;13.452;2022-07-22T02:37:58;5.50;;;4.90;;
25331;SDS011;13284;52.748;13.452;2022-07-22T02:40:23;7.00;;;5.10;;
25331;SDS011;13284;52.748;13.452;2022-07-22T02:42:49;6.10;;;5.50;;
25331;SDS011;13284;52.748;13.452;2022-07-22T02:45:14;5.50;;;4.67;;
25331;SDS011;13284;52.748;13.452;2022-07-22T02:47:47;6.83;;;5.07;;
25331;SDS011;13284;52.748;13.452;2022-07-22T02:50:14;7.20;;;5.73;;
25331;SDS011;13284;52.748;13.452;2022-07-22T02:52:39;5.73;;;5.23;;
25331;SDS011;13284;52.748;13.452;2022-07-22T02:55:05;5.40;;;4.90;;
25331;SDS011;13284;52.748;13.452;2022-07-22T02:57:31;7.00;;;4.97;;
25331;SDS011;13284;52.748;13.452;2022-07-22T02:59:56;5.40;;;4.90;;
25331;SDS011;13284;52.748;13.452;2022-07-22T03:02:21;7.07;;;5.37;;
25331;SDS011;13284;52.748;13.452;2022-07-22T03:04:47;7.37;;;5.40;;
25331;SDS011;13284;52.748;13.452;2022-07-22T03:07:12;6.80;;;5.53;;
25331;SDS011;13284;52.748;13.452;2022-07-22T03:09:38;6.53;;;5.13;;
25331;SDS011;13284;52.748;13.452;2022-07-22T03:12:03;5.07;;;4.67;;
25331;SDS011;13284;52.748;13.452;2022-07-22T03:14:29;5.53;;;5.10;;
25331;SDS011;13284;52.748;13.452;2022-07-22T03:16:54;6.33;;;5.60;;
25331;SDS011;13284;52.748;13.452;2022-07-22T03:19:20;6.40;;;5.60;;
25331;SDS011;13284;52.748;13.452;2022-07-22T03:21:45;8.73;;;5.63;;
25331;SDS011;13284;52.748;13.452;2022-07-22T03:24:11;6.40;;;5.30;;
25331;SDS011;13284;52.748;13.452;2022-07-22T03:26:36;6.10;;;5.50;;
25331;SDS011;13284;52.748;13.452;2022-07-22T03:29:02;5.77;;;5.20;;
25331;SDS011;13284;52.748;13.452;2022-07-22T03:31:27;6.10;;;5.60;;
25331;SDS011;13284;52.748;13.452;2022-07-22T03:33:53;7.10;;;5.40;;
25331;SDS011;13284;52.748;13.452;2022-07-22T03:36:18;6.73;;;6.10;;
25331;SDS011;13284;52.748;13.452;2022-07-22T03:38:44;6.20;;;5.40;;
25331;SDS011;13284;52.748;13.452;2022-07-22T03:41:09;9.10;;;6.07;;
25331;SDS011;13284;52.748;13.452;2022-07-22T03:43:35;5.90;;;5.30;;
25331;SDS011;13284;52.748;13.452;2022-07-22T03:46:00;6.40;;;5.80;;
25331;SDS011;13284;52.748;13.452;2022-07-22T03:48:26;7.53;;;5.57;;
25331;SDS011;13284;52.748;13.452;2022-07-22T03:50:51;6.33;;;5.73;;
25331;SDS011;13284;52.748;13.452;2022-07-22T03:53:17;6.73;;;5.30;;
25331;SDS011;13284;52.748;13.452;2022-07-22T03:55:42;7.00;;;5.67;;
25331;SDS011;13284;52.748;13.452;2022-07-22T03:58:08;5.83;;;5.33;;
25331;SDS011;13284;52.748;13.452;2022-07-22T04:00:34;6.10;;;5.50;;
25331;SDS011;13284;52.748;13.452;2022-07-22T04:02:59;7.70;;;6.70;;
25331;SDS011;13284;52.748;13.452;2022-07-22T04:05:25;9.33;;;6.27;;
25331;SDS011;13284;52.748;13.452;2022-07-22T04:07:51;5.30;;;4.80;;
25331;SDS011;13284;52.748;13.452;2022-07-22T04:10:16;6.33;;;5.73;;
25331;SDS011;13284;52.748;13.452;2022-07-22T04:12:41;9.27;;;6.40;;
25331;SDS011;13284;52.748;13.452;2022-07-22T04:15:07;7.27;;;6.60;;
25331;SDS011;13284;52.748;13.452;2022-07-22T04:17:34;6.20;;;5.60;;
25331;SDS011;13284;52.748;13.452;2022-07-22T04:19:59;6.33;;;5.70;;
25331;SDS011;13284;52.748;13.452;2022-07-22T04:22:26;7.00;;;6.30;;
25331;SDS011;13284;52.748;13.452;2022-07-22T04:24:52;8.30;;;6.07;;
25331;SDS011;13284;52.748;13.452;2022-07-22T04:27:17;7.17;;;6.47;;
25331;SDS011;13284;52.748;13.452;2022-07-22T04:29:43;8.60;;;7.80;;
25331;SDS011;13284;52.748;13.452;2022-07-22T04:32:08;6.50;;;5.80;;
25331;SDS011;13284;52.748;13.452;2022-07-22T04:34:34;6.60;;;5.63;;
25331;SDS011;13284;52.748;13.452;2022-07-22T04:36:59;6.67;;;5.80;;
25331;SDS011;13284;52.748;13.452;2022-07-22T04:39:25;8.27;;;7.20;;
25331;SDS011;13284;52.748;13.452;2022-07-22T04:41:50;8.60;;;6.90;;
25331;SDS011;13284;52.748;13.452;2022-07-22T04:44:16;9.80;;;6.47;;
25331;SDS011;13284;52.748;13.452;2022-07-22T04:46:41;9.17;;;6.83;;
25331;SDS011;13284;52.748;13.452;2022-07-22T04:49:07;7.27;;;6.57;;
25331;SDS011;13284;52.748;13.452;2022-07-22T04:51:32;7.30;;;6.07;;
25331;SDS011;13284;52.748;13.452;2022-07-22T04:53:58;9.50;;;7.00;;
25331;SDS011;13284;52.748;13.452;2022-07-22T04:56:23;10.07;;;7.80;;
25331;SDS011;13284;52.748;13.452;2022-07-22T04:58:49;7.70;;;6.90;;
25331;SDS011;13284;52.748;13.452;2022-07-22T05:01:15;8.97;;;7.10;;
25331;SDS011;13284;52.748;13.452;2022-07-22T05:03:41;9.23;;;7.50;;
25331;SDS011;13284;52.748;13.452;2022-07-22T05:06:07;7.00;;;6.30;;
25331;SDS011;13284;52.748;13.452;2022-07-22T05:08:33;7.97;;;7.17;;
25331;SDS011;13284;52.748;13.452;2022-07-22T05:10:58;8.40;;;7.50;;
25331;SDS011;13284;52.748;13.452;2022-07-22T05:13:24;11.60;;;7.37;;
25331;SDS011;13284;52.748;13.452;2022-07-22T05:15:49;8.43;;;6.97;;
25331;SDS011;13284;52.748;13.452;2022-07-22T05:18:15;8.50;;;7.50;;
25331;SDS011;13284;52.748;13.452;2022-07-22T05:20:41;9.70;;;8.57;;
25331;SDS011;13284;52.748;13.452;2022-07-22T05:23:06;11.30;;;7.50;;
25331;SDS011;13284;52.748;13.452;2022-07-22T05:25:32;8.83;;;7.93;;
25331;SDS011;13284;52.748;13.452;2022-07-22T05:27:57;9.67;;;8.67;;
25331;SDS011;13284;52.748;13.452;2022-07-22T05:30:23;10.27;;;9.23;;
25331;SDS011;13284;52.748;13.452;2022-07-22T05:32:48;10.37;;;8.67;;
25331;SDS011;13284;52.748;13.452;2022-07-22T05:35:14;10.00;;;8.70;;
25331;SDS011;13284;52.748;13.452;2022-07-22T05:37:40;10.40;;;8.90;;
25331;SDS011;13284;52.748;13.452;2022-07-22T05:40:05;12.10;;;10.30;;
25331;SDS011;13284;52.748;13.452;2022-07-22T05:42:31;12.87;;;10.70;;
25331;SDS011;13284;52.748;13.452;2022-07-22T05:44:57;12.97;;;11.60;;
25331;SDS011;13284;52.748;13.452;2022-07-22T05:47:22;13.70;;;10.73;;
25331;SDS011;13284;52.748;13.452;2022-07-22T05:49:48;10.80;;;9.70;;
25331;SDS011;13284;52.748;13.452;2022-07-22T05:52:13;12.20;;;10.83;;
25331;SDS011;13284;52.748;13.452;2022-07-22T05:54:39;11.57;;;9.87;;
25331;SDS011;13284;52.748;13.452;2022-07-22T05:57:07;11.60;;;10.47;;
25331;SDS011;13284;52.748;13.452;2022-07-22T05:59:34;11.53;;;10.37;;
25331;SDS011;13284;52.748;13.452;2022-07-22T06:02:00;11.67;;;9.90;;
25331;SDS011;13284;52.748;13.452;2022-07-22T06:04:26;10.47;;;9.40;;
25331;SDS011;13284;52.748;13.452;2022-07-22T06:06:52;10.00;;;9.00;;
25331;SDS011;13284;52.748;13.452;2022-07-22T06:09:17;12.30;;;9.23;;
25331;SDS011;13284;52.748;13.452;2022-07-22T06:11:43;9.03;;;8.00;;
25331;SDS011;13284;52.748;13.452;2022-07-22T06:14:08;12.17;;;8.57;;
25331;SDS011;13284;52.748;13.452;2022-07-22T06:16:33;12.20;;;9.10;;
25331;SDS011;13284;52.748;13.452;2022-07-22T06:19:00;9.70;;;8.80;;
25331;SDS011;13284;52.748;13.452;2022-07-22T06:21:26;8.97;;;8.07;;
25331;SDS011;13284;52.748;13.452;2022-07-22T06:23:52;8.50;;;7.60;;
25331;SDS011;13284;52.748;13.452;2022-07-22T06:26:17;9.47;;;8.30;;
25331;SDS011;13284;52.748;13.452;2022-07-22T06:28:43;9.90;;;8.90;;
25331;SDS011;13284;52.748;13.452;2022-07-22T06:31:09;10.00;;;9.00;;
25331;SDS011;13284;52.748;13.452;2022-07-22T06:33:34;11.73;;;8.70;;
25331;SDS011;13284;52.748;13.452;2022-07-22T06:36:00;11.40;;;9.10;;
25331;SDS011;13284;52.748;13.452;2022-07-22T06:38:26;11.20;;;9.20;;
25331;SDS011;13284;52.748;13.452;2022-07-22T06:40:51;9.37;;;8.37;;
25331;SDS011;13284;52.748;13.452;2022-07-22T06:43:17;10.53;;;9.43;;
25331;SDS011;13284;52.748;13.452;2022-07-22T06:45:42;9.57;;;8.53;;
25331;SDS011;13284;52.748;13.452;2022-07-22T06:48:08;10.90;;;9.63;;
25331;SDS011;13284;52.748;13.452;2022-07-22T06:50:33;11.70;;;10.20;;
25331;SDS011;13284;52.748;13.452;2022-07-22T06:52:59;9.20;;;8.30;;
25331;SDS011;13284;52.748;13.452;2022-07-22T06:55:24;9.80;;;8.90;;
25331;SDS011;13284;52.748;13.452;2022-07-22T06:57:50;10.80;;;9.50;;
25331;SDS011;13284;52.748;13.452;2022-07-22T07:00:15;10.53;;;9.10;;
25331;SDS011;13284;52.748;13.452;2022-07-22T07:02:42;17.30;;;9.90;;
25331;SDS011;13284;52.748;13.452;2022-07-22T07:05:08;9.60;;;8.27;;
25331;SDS011;13284;52.748;13.452;2022-07-22T07:07:34;10.07;;;8.63;;
25331;SDS011;13284;52.748;13.452;2022-07-22T07:10:00;8.87;;;7.97;;
25331;SDS011;13284;52.748;13.452;2022-07-22T07:12:26;9.47;;;8.50;;
25331;SDS011;13284;52.748;13.452;2022-07-22T07:14:51;11.20;;;9.23;;
25331;SDS011;13284;52.748;13.452;2022-07-22T07:17:17;11.33;;;8.30;;
25331;SDS011;13284;52.748;13.452;2022-07-22T07:19:42;9.50;;;8.50;;
25331;SDS011;13284;52.748;13.452;2022-07-22T07:22:07;9.03;;;8.00;;
25331;SDS011;13284;52.748;13.452;2022-07-22T07:24:33;8.73;;;7.83;;
25331;SDS011;13284;52.748;13.452;2022-07-22T07:26:58;8.90;;;7.90;;
25331;SDS011;13284;52.748;13.452;2022-07-22T07:29:24;8.90;;;8.00;;
25331;SDS011;13284;52.748;13.452;2022-07-22T07:31:49;9.07;;;8.27;;
25331;SDS011;13284;52.748;13.452;2022-07-22T07:34:15;8.03;;;7.23;;
25331;SDS011;13284;52.748;13.452;2022-07-22T07:36:40;7.10;;;6.47;;
25331;SDS011;13284;52.748;13.452;2022-07-22T07:39:06;7.40;;;6.80;;
25331;SDS011;13284;52.748;13.452;2022-07-22T07:41:32;7.50;;;6.80;;
25331;SDS011;13284;52.748;13.452;2022-07-22T07:43:57;7.37;;;6.50;;
25331;SDS011;13284;52.748;13.452;2022-07-22T07:46:23;8.80;;;7.40;;
25331;SDS011;13284;52.748;13.452;2022-07-22T07:48:48;6.47;;;5.87;;
25331;SDS011;13284;52.748;13.452;2022-07-22T07:51:14;8.10;;;7.30;;
25331;SDS011;13284;52.748;13.452;2022-07-22T07:53:40;6.80;;;6.10;;
25331;SDS011;13284;52.748;13.452;2022-07-22T07:56:05;7.80;;;6.80;;
25331;SDS011;13284;52.748;13.452;2022-07-22T07:58:31;7.87;;;7.10;;
25331;SDS011;13284;52.748;13.452;2022-07-22T08:00:57;6.80;;;6.13;;
25331;SDS011;13284;52.748;13.452;2022-07-22T08:03:22;7.33;;;6.73;;
25331;SDS011;13284;52.748;13.452;2022-07-22T08:05:48;6.47;;;5.87;;
25331;SDS011;13284;52.748;13.452;2022-07-22T08:08:14;6.10;;;5.50;;
25331;SDS011;13284;52.748;13.452;2022-07-22T08:10:39;6.93;;;6.33;;
25331;SDS011;13284;52.748;13.452;2022-07-22T08:13:05;7.07;;;6.47;;
25331;SDS011;13284;52.748;13.452;2022-07-22T08:15:31;6.17;;;5.57;;
25331;SDS011;13284;52.748;13.452;2022-07-22T08:17:57;6.33;;;5.77;;
25331;SDS011;13284;52.748;13.452;2022-07-22T08:20:24;7.40;;;6.70;;
25331;SDS011;13284;52.748;13.452;2022-07-22T08:22:52;6.50;;;5.90;;
25331;SDS011;13284;52.748;13.452;2022-07-22T08:25:18;8.77;;;6.07;;
25331;SDS011;13284;52.748;13.452;2022-07-22T08:27:44;6.10;;;5.60;;
25331;SDS011;13284;52.748;13.452;2022-07-22T08:30:10;6.47;;;5.87;;
25331;SDS011;13284;52.748;13.452;2022-07-22T08:32:36;6.43;;;5.93;;
25331;SDS011;13284;52.748;13.452;2022-07-22T08:35:02;6.73;;;6.17;;
25331;SDS011;13284;52.748;13.452;2022-07-22T08:37:29;6.90;;;6.30;;
25331;SDS011;13284;52.748;13.452;2022-07-22T08:39:54;6.83;;;6.23;;
25331;SDS011;13284;52.748;13.452;2022-07-22T08:42:21;6.90;;;6.40;;
25331;SDS011;13284;52.748;13.452;2022-07-22T08:44:47;6.47;;;5.87;;
25331;SDS011;13284;52.748;13.452;2022-07-22T08:47:14;6.70;;;6.13;;
25331;SDS011;13284;52.748;13.452;2022-07-22T08:49:39;7.57;;;6.87;;
25331;SDS011;13284;52.748;13.452;2022-07-22T08:52:05;6.60;;;5.90;;
25331;SDS011;13284;52.748;13.452;2022-07-22T08:54:30;6.60;;;5.70;;
25331;SDS011;13284;52.748;13.452;2022-07-22T08:56:56;6.23;;;5.67;;
25331;SDS011;13284;52.748;13.452;2022-07-22T08:59:21;7.53;;;6.83;;
25331;SDS011;13284;52.748;13.452;2022-07-22T09:02:06;7.50;;;6.80;;
25331;SDS011;13284;52.748;13.452;2022-07-22T09:04:49;6.80;;;6.17;;
25331;SDS011;13284;52.748;13.452;2022-07-22T09:09:49;9.77;;;6.50;;
25331;SDS011;13284;52.748;13.452;2022-07-22T09:12:15;6.90;;;6.30;;
25331;SDS011;13284;52.748;13.452;2022-07-22T09:14:44;5.50;;;5.00;;
25331;SDS011;13284;52.748;13.452;2022-07-22T09:17:24;5.23;;;4.83;;
25331;SDS011;13284;52.748;13.452;2022-07-22T09:19:50;5.67;;;5.17;;
25331;SDS011;13284;52.748;13.452;2022-07-22T09:25:39;6.53;;;4.40;;
25331;SDS011;13284;52.748;13.452;2022-07-22T09:30:30;4.63;;;4.13;;
25331;SDS011;13284;52.748;13.452;2022-07-22T09:32:56;4.70;;;4.30;;
25331;SDS011;13284;52.748;13.452;2022-07-22T09:35:22;6.40;;;4.67;;
25331;SDS011;13284;52.748;13.452;2022-07-22T09:37:52;4.70;;;4.20;;
25331;SDS011;13284;52.748;13.452;2022-07-22T09:40:26;5.33;;;4.93;;
25331;SDS011;13284;52.748;13.452;2022-07-22T09:42:55;4.40;;;4.10;;
25331;SDS011;13284;52.748;13.452;2022-07-22T09:45:23;4.17;;;3.87;;
25331;SDS011;13284;52.748;13.452;2022-07-22T09:47:51;4.77;;;4.37;;
25331;SDS011;13284;52.748;13.452;2022-07-22T09:52:47;5.43;;;3.80;;
25331;SDS011;13284;52.748;13.452;2022-07-22T09:55:14;4.77;;;4.33;;
25331;SDS011;13284;52.748;13.452;2022-07-22T09:57:40;4.40;;;4.00;;
25331;SDS011;13284;52.748;13.452;2022-07-22T10:00:06;4.40;;;3.63;;
25331;SDS011;13284;52.748;13.452;2022-07-22T10:02:56;3.30;;;3.10;;
25331;SDS011;13284;52.748;13.452;2022-07-22T10:05:23;3.90;;;3.60;;
25331;SDS011;13284;52.748;13.452;2022-07-22T10:07:50;3.30;;;3.10;;
25331;SDS011;13284;52.748;13.452;2022-07-22T10:10:18;3.20;;;2.97;;
25331;SDS011;13284;52.748;13.452;2022-07-22T10:12:46;3.83;;;3.43;;
25331;SDS011;13284;52.748;13.452;2022-07-22T10:15:13;4.03;;;3.73;;
25331;SDS011;13284;52.748;13.452;2022-07-22T10:17:42;3.60;;;3.40;;
25331;SDS011;13284;52.748;13.452;2022-07-22T10:20:09;3.53;;;3.23;;
25331;SDS011;13284;52.748;13.452;2022-07-22T10:25:04;3.60;;;3.30;;
25331;SDS011;13284;52.748;13.452;2022-07-22T10:30:09;4.37;;;3.97;;
25331;SDS011;13284;52.748;13.452;2022-07-22T10:32:35;4.47;;;4.17;;
25331;SDS011;13284;52.748;13.452;2022-07-22T10:40:09;4.03;;;3.73;;
25331;SDS011;13284;52.748;13.452;2022-07-22T10:45:41;4.50;;;4.10;;
25331;SDS011;13284;52.748;13.452;2022-07-22T10:48:12;4.80;;;4.40;;
25331;SDS011;13284;52.748;13.452;2022-07-22T10:50:43;6.30;;;4.00;;
25331;SDS011;13284;52.748;13.452;2022-07-22T10:53:24;5.23;;;4.73;;
25331;SDS011;13284;52.748;13.452;2022-07-22T10:59:09;5.10;;;4.70;;
25331;SDS011;13284;52.748;13.452;2022-07-22T11:01:40;6.73;;;6.17;;
25331;SDS011;13284;52.748;13.452;2022-07-22T11:04:24;6.47;;;5.87;;
25331;SDS011;13284;52.748;13.452;2022-07-22T11:06:51;7.13;;;6.47;;
25331;SDS011;13284;52.748;13.452;2022-07-22T11:09:21;7.03;;;6.40;;
25331;SDS011;13284;52.748;13.452;2022-07-22T11:11:52;6.77;;;6.17;;
25331;SDS011;13284;52.748;13.452;2022-07-22T11:14:32;7.37;;;6.23;;
25331;SDS011;13284;52.748;13.452;2022-07-22T11:17:06;6.13;;;5.63;;
25331;SDS011;13284;52.748;13.452;2022-07-22T11:19:33;6.30;;;5.70;;
25331;SDS011;13284;52.748;13.452;2022-07-22T11:22:11;10.13;;;7.53;;
25331;SDS011;13284;52.748;13.452;2022-07-22T11:24:39;6.93;;;6.33;;
25331;SDS011;13284;52.748;13.452;2022-07-22T11:27:09;6.83;;;6.20;;
25331;SDS011;13284;52.748;13.452;2022-07-22T11:29:39;6.80;;;6.20;;
25331;SDS011;13284;52.748;13.452;2022-07-22T11:32:09;6.33;;;5.73;;
25331;SDS011;13284;52.748;13.452;2022-07-22T11:34:37;12.13;;;5.60;;
25331;SDS011;13284;52.748;13.452;2022-07-22T11:37:07;6.87;;;5.33;;
25331;SDS011;13284;52.748;13.452;2022-07-22T11:39:33;4.90;;;4.50;;
25331;SDS011;13284;52.748;13.452;2022-07-22T11:42:00;5.77;;;5.23;;
25331;SDS011;13284;52.748;13.452;2022-07-22T11:44:27;7.20;;;6.50;;
25331;SDS011;13284;52.748;13.452;2022-07-22T11:46:54;5.77;;;5.27;;
25331;SDS011;13284;52.748;13.452;2022-07-22T11:49:23;6.10;;;5.50;;
25331;SDS011;13284;52.748;13.452;2022-07-22T11:51:50;5.10;;;4.70;;
25331;SDS011;13284;52.748;13.452;2022-07-22T11:54:16;6.00;;;5.50;;
25331;SDS011;13284;52.748;13.452;2022-07-22T11:56:42;6.57;;;5.33;;
25331;SDS011;13284;52.748;13.452;2022-07-22T11:59:08;6.83;;;5.00;;
25331;SDS011;13284;52.748;13.452;2022-07-22T12:01:37;5.50;;;5.00;;
25331;SDS011;13284;52.748;13.452;2022-07-22T12:04:04;4.73;;;4.33;;
25331;SDS011;13284;52.748;13.452;2022-07-22T12:06:33;4.67;;;4.27;;
25331;SDS011;13284;52.748;13.452;2022-07-22T12:09:08;4.37;;;4.07;;
25331;SDS011;13284;52.748;13.452;2022-07-22T12:11:39;4.10;;;3.80;;
25331;SDS011;13284;52.748;13.452;2022-07-22T12:14:11;4.50;;;4.10;;
25331;SDS011;13284;52.748;13.452;2022-07-22T12:16:55;3.77;;;3.53;;
25331;SDS011;13284;52.748;13.452;2022-07-22T12:19:23;4.30;;;3.90;;
25331;SDS011;13284;52.748;13.452;2022-07-22T12:27:00;3.73;;;3.43;;
25331;SDS011;13284;52.748;13.452;2022-07-22T12:32:02;5.40;;;4.40;;
25331;SDS011;13284;52.748;13.452;2022-07-22T12:34:40;4.60;;;4.20;;
25331;SDS011;13284;52.748;13.452;2022-07-22T12:37:18;4.33;;;3.93;;
25331;SDS011;13284;52.748;13.452;2022-07-22T12:39:52;4.20;;;3.70;;
25331;SDS011;13284;52.748;13.452;2022-07-22T12:42:17;5.90;;;3.63;;
25331;SDS011;13284;52.748;13.452;2022-07-22T12:53:08;3.63;;;3.33;;
25331;SDS011;13284;52.748;13.452;2022-07-22T12:55:42;3.40;;;3.10;;
25331;SDS011;13284;52.748;13.452;2022-07-22T12:58:23;3.90;;;3.60;;
25331;SDS011;13284;52.748;13.452;2022-07-22T13:00:51;4.43;;;4.03;;
25331;SDS011;13284;52.748;13.452;2022-07-22T13:03:19;3.63;;;3.33;;
25331;SDS011;13284;52.748;13.452;2022-07-22T13:05:50;3.83;;;3.53;;
25331;SDS011;13284;52.748;13.452;2022-07-22T13:08:17;3.77;;;3.47;;
25331;SDS011;13284;52.748;13.452;2022-07-22T13:10:43;3.13;;;2.70;;
25331;SDS011;13284;52.748;13.452;2022-07-22T13:13:09;3.17;;;2.93;;
25331;SDS011;13284;52.748;13.452;2022-07-22T13:15:35;3.10;;;2.90;;
25331;SDS011;13284;52.748;13.452;2022-07-22T13:18:01;2.87;;;2.67;;
25331;SDS011;13284;52.748;13.452;2022-07-22T13:20:27;2.70;;;2.43;;
25331;SDS011;13284;52.748;13.452;2022-07-22T13:22:53;2.77;;;2.57;;
25331;SDS011;13284;52.748;13.452;2022-07-22T13:25:18;3.33;;;3.10;;
25331;SDS011;13284;52.748;13.452;2022-07-22T13:27:44;3.43;;;3.13;;
25331;SDS011;13284;52.748;13.452;2022-07-22T13:30:09;3.97;;;3.57;;
25331;SDS011;13284;52.748;13.452;2022-07-22T13:32:35;2.60;;;2.40;;
25331;SDS011;13284;52.748;13.452;2022-07-22T13:35:01;4.20;;;3.20;;
25331;SDS011;13284;52.748;13.452;2022-07-22T13:37:27;2.93;;;2.73;;
25331;SDS011;13284;52.748;13.452;2022-07-22T13:39:52;2.97;;;2.67;;
25331;SDS011;13284;52.748;13.452;2022-07-22T13:42:18;5.00;;;4.07;;
25331;SDS011;13284;52.748;13.452;2022-07-22T13:44:44;2.93;;;2.73;;
25331;SDS011;13284;52.748;13.452;2022-07-22T13:47:11;3.03;;;2.77;;
25331;SDS011;13284;52.748;13.452;2022-07-22T13:49:37;2.70;;;2.50;;
25331;SDS011;13284;52.748;13.452;2022-07-22T13:52:03;2.70;;;2.50;;
25331;SDS011;13284;52.748;13.452;2022-07-22T13:54:29;2.50;;;2.30;;
25331;SDS011;13284;52.748;13.452;2022-07-22T13:56:54;3.00;;;2.33;;
25331;SDS011;13284;52.748;13.452;2022-07-22T13:59:20;2.70;;;2.50;;
25331;SDS011;13284;52.748;13.452;2022-07-22T14:01:48;2.40;;;2.20;;
25331;SDS011;13284;52.748;13.452;2022-07-22T14:04:14;2.37;;;2.17;;
25331;SDS011;13284;52.748;13.452;2022-07-22T14:06:39;2.43;;;2.33;;
25331;SDS011;13284;52.748;13.452;2022-07-22T14:09:05;2.47;;;2.27;;
25331;SDS011;13284;52.748;13.452;2022-07-22T14:11:30;2.70;;;2.50;;
25331;SDS011;13284;52.748;13.452;2022-07-22T14:13:56;3.87;;;2.60;;
25331;SDS011;13284;52.748;13.452;2022-07-22T14:16:21;2.60;;;2.40;;
25331;SDS011;13284;52.748;13.452;2022-07-22T14:18:59;2.80;;;2.20;;
25331;SDS011;13284;52.748;13.452;2022-07-22T14:21:26;1.93;;;1.83;;
25331;SDS011;13284;52.748;13.452;2022-07-22T14:23:52;2.03;;;1.93;;
25331;SDS011;13284;52.748;13.452;2022-07-22T14:26:17;2.20;;;2.10;;
25331;SDS011;13284;52.748;13.452;2022-07-22T14:28:43;3.53;;;2.20;;
25331;SDS011;13284;52.748;13.452;2022-07-22T14:31:08;1.80;;;1.70;;
25331;SDS011;13284;52.748;13.452;2022-07-22T14:33:34;1.93;;;1.83;;
25331;SDS011;13284;52.748;13.452;2022-07-22T14:35:59;7.20;;;2.50;;
25331;SDS011;13284;52.748;13.452;2022-07-22T14:38:25;2.30;;;2.10;;
25331;SDS011;13284;52.748;13.452;2022-07-22T14:40:50;2.20;;;2.00;;
25331;SDS011;13284;52.748;13.452;2022-07-22T14:43:16;1.87;;;1.77;;
25331;SDS011;13284;52.748;13.452;2022-07-22T14:45:41;1.77;;;1.67;;
25331;SDS011;13284;52.748;13.452;2022-07-22T14:48:06;2.13;;;2.03;;
25331;SDS011;13284;52.748;13.452;2022-07-22T14:50:32;2.90;;;1.43;;
25331;SDS011;13284;52.748;13.452;2022-07-22T14:52:57;1.80;;;1.70;;
25331;SDS011;13284;52.748;13.452;2022-07-22T14:55:23;1.83;;;1.70;;
25331;SDS011;13284;52.748;13.452;2022-07-22T14:57:48;1.57;;;1.47;;
25331;SDS011;13284;52.748;13.452;2022-07-22T15:00:14;2.33;;;2.23;;
25331;SDS011;13284;52.748;13.452;2022-07-22T15:02:40;1.70;;;1.60;;
25331;SDS011;13284;52.748;13.452;2022-07-22T15:05:05;1.80;;;1.57;;
25331;SDS011;13284;52.748;13.452;2022-07-22T15:07:31;1.83;;;1.63;;
25331;SDS011;13284;52.748;13.452;2022-07-22T15:09:57;2.00;;;1.90;;
25331;SDS011;13284;52.748;13.452;2022-07-22T15:12:22;2.10;;;2.00;;